Victory, Vermont
Current Conditions -  °F | °C
As of 6:55 AM on Sunday 23 Nov 2014 (Local Time) from KCDA Reporting Station
Moderate Fog Moderate Fog  
Wind Chill: 35°   Ceiling: 100
Heat Index: 35°   Visibility: 0.5mi
Dew Point: 33°   Wind: 0mph
Humidity: 91%   Direction: NA
Pressure: 30.01"   Gusts: NA
Location:  44.5627°N, 71.7775°W
Report Text: KCDA 231155Z AUTO 00000KT 1/2SM FG OVC001 02/01 A3001 RMK AO2 T00190006 10026 20017
Loading
Personal Weather Stations






























Interactive Weather Map New forecast layout! Learn more

10-Day Weather Forecast

Advertisements
Track Severe Weather on mobile